createdAt,value
2019-03-24T00:00:12.017Z,964.26
2019-03-24T00:01:12.006Z,964.29
2019-03-24T00:02:11.991Z,964.26
2019-03-24T00:03:11.976Z,964.3
2019-03-24T00:04:11.964Z,964.28
2019-03-24T00:05:11.954Z,964.26
2019-03-24T00:06:11.938Z,964.27
2019-03-24T00:07:11.922Z,964.26
2019-03-24T00:08:11.909Z,964.25
2019-03-24T00:09:11.899Z,964.26
2019-03-24T00:10:11.882Z,964.21
2019-03-24T00:11:11.870Z,964.21
2019-03-24T00:12:11.860Z,964.19
2019-03-24T00:13:11.844Z,964.19
2019-03-24T00:14:11.828Z,964.18
2019-03-24T00:15:11.814Z,964.21
2019-03-24T00:16:11.803Z,964.17
2019-03-24T00:17:11.789Z,964.17
2019-03-24T00:18:11.779Z,964.15
2019-03-24T00:19:11.762Z,964.11
2019-03-24T00:20:11.758Z,964.12
2019-03-24T00:21:11.734Z,964.1
2019-03-24T00:22:11.721Z,964.14
2019-03-24T00:23:11.707Z,964.12
2019-03-24T00:24:11.693Z,964.11
2019-03-24T00:25:11.678Z,964.12
2019-03-24T00:26:11.666Z,964.09
2019-03-24T00:27:11.653Z,964.07
2019-03-24T00:28:11.640Z,964.06
2019-03-24T00:29:11.624Z,964.04
2019-03-24T00:30:11.613Z,964.09
2019-03-24T00:31:11.599Z,964.05
2019-03-24T00:32:11.584Z,964.05
2019-03-24T00:33:11.570Z,964.04
2019-03-24T00:34:11.557Z,964.06
2019-03-24T00:35:11.547Z,964.05
2019-03-24T00:36:11.530Z,964.02
2019-03-24T00:37:11.516Z,964.03
2019-03-24T00:38:11.506Z,963.97
2019-03-24T00:39:11.491Z,963.93
2019-03-24T00:40:11.477Z,963.94
2019-03-24T00:41:11.461Z,963.92
2019-03-24T00:42:11.449Z,963.93
2019-03-24T00:43:11.435Z,963.95
2019-03-24T00:44:11.422Z,963.85
2019-03-24T00:45:11.408Z,963.89
2019-03-24T00:46:11.396Z,963.86
2019-03-24T00:47:11.379Z,963.9
2019-03-24T00:48:11.366Z,963.87
2019-03-24T00:49:11.353Z,963.87
2019-03-24T00:50:11.340Z,963.87
2019-03-24T00:51:11.325Z,963.86
2019-03-24T00:52:11.312Z,963.9
2019-03-24T00:53:11.298Z,963.9
2019-03-24T00:54:11.283Z,963.91
2019-03-24T00:55:11.270Z,963.88
2019-03-24T00:56:11.259Z,963.86
2019-03-24T00:57:11.243Z,963.82
2019-03-24T00:58:11.229Z,963.8
2019-03-24T00:59:11.219Z,963.83
2019-03-24T01:00:11.202Z,963.79
2019-03-24T01:01:11.191Z,963.74
2019-03-24T01:02:11.177Z,963.79
2019-03-24T01:03:11.161Z,963.77
2019-03-24T01:04:11.148Z,963.77
2019-03-24T01:05:11.133Z,963.78
2019-03-24T01:06:11.119Z,963.74
2019-03-24T01:07:11.107Z,963.77
2019-03-24T01:08:11.091Z,963.75
2019-03-24T01:09:11.078Z,963.72
2019-03-24T01:10:11.065Z,963.7
2019-03-24T01:11:11.052Z,963.68
2019-03-24T01:12:11.036Z,963.72
2019-03-24T01:13:11.022Z,963.67
2019-03-24T01:14:11.009Z,963.71
2019-03-24T01:15:10.994Z,963.69
2019-03-24T01:16:10.980Z,963.67
2019-03-24T01:17:10.968Z,963.68
2019-03-24T01:18:10.954Z,963.69
2019-03-24T01:19:10.941Z,963.68
2019-03-24T01:20:10.973Z,963.69
2019-03-24T01:21:10.911Z,963.67
2019-03-24T01:22:10.898Z,963.66
2019-03-24T01:23:10.887Z,963.72
2019-03-24T01:24:10.871Z,963.67
2019-03-24T01:25:10.856Z,963.65
2019-03-24T01:26:10.842Z,963.68
2019-03-24T01:27:10.828Z,963.71
2019-03-24T01:28:10.814Z,963.68
2019-03-24T01:29:10.802Z,963.69
2019-03-24T01:30:10.790Z,963.64
2019-03-24T01:31:10.772Z,963.63
2019-03-24T01:32:10.759Z,963.61
2019-03-24T01:33:10.745Z,963.63
2019-03-24T01:34:10.731Z,963.66
2019-03-24T01:35:10.728Z,963.66
2019-03-24T01:36:10.703Z,963.65
2019-03-24T01:37:10.690Z,963.66
2019-03-24T01:38:10.676Z,963.69
2019-03-24T01:39:10.661Z,963.65
2019-03-24T01:40:10.648Z,963.63
2019-03-24T01:41:10.634Z,963.61
2019-03-24T01:42:10.620Z,963.61
2019-03-24T01:43:10.607Z,963.6
2019-03-24T01:44:10.593Z,963.62
2019-03-24T01:45:10.577Z,963.6
2019-03-24T01:46:10.564Z,963.6
2019-03-24T01:47:10.551Z,963.59
2019-03-24T01:48:10.538Z,963.59
2019-03-24T01:49:10.523Z,963.58
2019-03-24T01:50:10.508Z,963.57
2019-03-24T01:51:10.496Z,963.56
2019-03-24T01:52:10.483Z,963.56
2019-03-24T01:53:10.466Z,963.51
2019-03-24T01:54:10.452Z,963.57
2019-03-24T01:55:10.440Z,963.5
2019-03-24T01:56:10.424Z,963.49
2019-03-24T01:57:10.416Z,963.51
2019-03-24T01:58:10.397Z,963.51
2019-03-24T01:59:10.384Z,963.47
2019-03-24T02:00:10.371Z,963.51
2019-03-24T02:01:10.357Z,963.46
2019-03-24T02:02:10.341Z,963.45
2019-03-24T02:03:10.327Z,963.44
2019-03-24T02:04:10.313Z,963.47
2019-03-24T02:05:10.299Z,963.45
2019-03-24T02:06:10.287Z,963.42
2019-03-24T02:07:10.271Z,963.4
2019-03-24T02:08:10.257Z,963.42
2019-03-24T02:09:10.243Z,963.4
2019-03-24T02:10:10.230Z,963.4
2019-03-24T02:11:10.216Z,963.39
2019-03-24T02:12:10.202Z,963.43
2019-03-24T02:13:10.188Z,963.4
2019-03-24T02:14:10.174Z,963.45
2019-03-24T02:15:10.170Z,963.43
2019-03-24T02:16:10.147Z,963.43
2019-03-24T02:17:10.147Z,963.42
2019-03-24T02:18:10.121Z,963.38
2019-03-24T02:19:10.103Z,963.39
2019-03-24T02:20:10.090Z,963.37
2019-03-24T02:21:10.077Z,963.42
2019-03-24T02:22:10.062Z,963.37
2019-03-24T02:23:10.047Z,963.39
2019-03-24T02:24:10.034Z,963.36
2019-03-24T02:25:10.021Z,963.38
2019-03-24T02:26:10.006Z,963.38
2019-03-24T02:27:09.993Z,963.37
2019-03-24T02:28:09.979Z,963.4
2019-03-24T02:29:09.984Z,963.32
2019-03-24T02:30:09.954Z,963.34
2019-03-24T02:31:09.948Z,963.32
2019-03-24T02:32:09.923Z,963.28
2019-03-24T02:33:09.909Z,963.33
2019-03-24T02:34:09.899Z,963.3
2019-03-24T02:35:09.881Z,963.28
2019-03-24T02:36:09.868Z,963.33
2019-03-24T02:37:09.854Z,963.31
2019-03-24T02:38:09.840Z,963.3
2019-03-24T02:39:09.829Z,963.3
2019-03-24T02:40:09.818Z,963.3
2019-03-24T02:41:09.803Z,963.27
2019-03-24T02:42:09.809Z,963.31
2019-03-24T02:43:09.781Z,963.31
2019-03-24T02:44:09.762Z,963.33
2019-03-24T02:45:09.748Z,963.35
2019-03-24T02:46:23.049Z,963.3
2019-03-24T02:47:09.715Z,963.29
2019-03-24T02:48:09.701Z,963.27
2019-03-24T02:49:09.690Z,963.25
2019-03-24T02:50:09.679Z,963.27
2019-03-24T02:51:09.661Z,963.29
2019-03-24T02:52:09.648Z,963.25
2019-03-24T02:53:09.634Z,963.28
2019-03-24T02:54:09.621Z,963.3
2019-03-24T02:55:09.607Z,963.27
2019-03-24T02:56:09.593Z,963.29
2019-03-24T02:57:09.578Z,963.27
2019-03-24T02:58:09.564Z,963.25
2019-03-24T02:59:09.552Z,963.27
2019-03-24T03:00:09.536Z,963.24
2019-03-24T03:01:09.531Z,963.24
2019-03-24T03:02:09.509Z,963.22
2019-03-24T03:03:09.495Z,963.24
2019-03-24T03:04:09.482Z,963.21
2019-03-24T03:05:09.468Z,963.23
2019-03-24T03:06:09.457Z,963.21
2019-03-24T03:07:09.444Z,963.23
2019-03-24T03:08:09.427Z,963.22
2019-03-24T03:09:09.411Z,963.23
2019-03-24T03:10:09.397Z,963.17
2019-03-24T03:11:09.385Z,963.19
2019-03-24T03:12:09.383Z,963.17
2019-03-24T03:13:09.356Z,963.15
2019-03-24T03:14:09.343Z,963.17
2019-03-24T03:15:09.330Z,963.16
2019-03-24T03:16:09.317Z,963.12
2019-03-24T03:17:09.302Z,963.14
2019-03-24T03:18:09.287Z,963.13
2019-03-24T03:19:09.275Z,963.08
2019-03-24T03:20:09.263Z,963.12
2019-03-24T03:21:09.246Z,963.08
2019-03-24T03:22:09.245Z,963.11
2019-03-24T03:23:09.220Z,963.11
2019-03-24T03:24:09.207Z,963.16
2019-03-24T03:25:09.190Z,963.16
2019-03-24T03:26:09.183Z,963.1
2019-03-24T03:27:09.167Z,963.14
2019-03-24T03:28:09.149Z,963.07
2019-03-24T03:29:09.136Z,963.04
2019-03-24T03:30:09.123Z,963.04
2019-03-24T03:31:09.111Z,963.08
2019-03-24T03:32:09.095Z,963.03
2019-03-24T03:33:09.082Z,963.05
2019-03-24T03:34:09.070Z,963.04
2019-03-24T03:35:09.065Z,963
2019-03-24T03:36:09.050Z,962.98
2019-03-24T03:37:09.026Z,963.01
2019-03-24T03:38:09.013Z,962.98
2019-03-24T03:39:09.014Z,962.93
2019-03-24T03:40:08.986Z,962.93
2019-03-24T03:41:08.972Z,962.96
2019-03-24T03:42:08.958Z,962.92
2019-03-24T03:43:08.945Z,962.93
2019-03-24T03:44:08.931Z,962.92
2019-03-24T03:45:08.916Z,962.92
2019-03-24T03:46:08.903Z,962.96
2019-03-24T03:47:08.889Z,962.94
2019-03-24T03:48:08.874Z,962.94
2019-03-24T03:49:08.864Z,962.92
2019-03-24T03:50:08.852Z,962.89
2019-03-24T03:51:08.837Z,962.87
2019-03-24T03:52:08.821Z,962.89
2019-03-24T03:53:08.808Z,962.86
2019-03-24T03:54:08.791Z,962.84
2019-03-24T03:55:08.780Z,962.87
2019-03-24T03:56:08.767Z,962.85
2019-03-24T03:57:08.749Z,962.79
2019-03-24T03:58:08.736Z,962.78
2019-03-24T03:59:08.728Z,962.76
2019-03-24T04:00:08.733Z,962.73
2019-03-24T04:01:08.694Z,962.75
2019-03-24T04:02:08.683Z,962.77
2019-03-24T04:03:08.670Z,962.75
2019-03-24T04:04:08.655Z,962.71
2019-03-24T04:05:08.641Z,962.69
2019-03-24T04:06:08.626Z,962.7
2019-03-24T04:07:08.613Z,962.7
2019-03-24T04:08:08.611Z,962.71
2019-03-24T04:09:08.586Z,962.73
2019-03-24T04:10:08.572Z,962.72
2019-03-24T04:11:08.557Z,962.71
2019-03-24T04:12:08.545Z,962.7
2019-03-24T04:13:08.533Z,962.71
2019-03-24T04:14:08.519Z,962.72
2019-03-24T04:15:08.503Z,962.7
2019-03-24T04:16:08.499Z,962.71
2019-03-24T04:17:08.494Z,962.69
2019-03-24T04:18:08.464Z,962.72
2019-03-24T04:19:08.448Z,962.67
2019-03-24T04:20:08.435Z,962.65
2019-03-24T04:21:08.431Z,962.63
2019-03-24T04:22:08.411Z,962.65
2019-03-24T04:23:08.394Z,962.63
2019-03-24T04:24:08.385Z,962.65
2019-03-24T04:25:08.371Z,962.69
2019-03-24T04:26:08.351Z,962.68
2019-03-24T04:27:08.340Z,962.74
2019-03-24T04:28:08.324Z,962.71
2019-03-24T04:29:08.319Z,962.68
2019-03-24T04:30:08.303Z,962.69
2019-03-24T04:31:08.285Z,962.69
2019-03-24T04:32:08.270Z,962.7
2019-03-24T04:33:08.255Z,962.65
2019-03-24T04:34:08.241Z,962.65
2019-03-24T04:35:08.233Z,962.65
2019-03-24T04:36:08.213Z,962.66
2019-03-24T04:37:08.200Z,962.65
2019-03-24T04:38:08.186Z,962.63
2019-03-24T04:39:08.174Z,962.62
2019-03-24T04:40:08.158Z,962.63
2019-03-24T04:41:08.145Z,962.67
2019-03-24T04:42:08.130Z,962.63
2019-03-24T04:43:08.117Z,962.67
2019-03-24T04:44:08.107Z,962.61
2019-03-24T04:45:08.089Z,962.66
2019-03-24T04:46:08.075Z,962.65
2019-03-24T04:47:16.274Z,962.66
2019-03-24T04:48:08.048Z,962.61
2019-03-24T04:49:08.035Z,962.62
2019-03-24T04:50:08.019Z,962.6
2019-03-24T04:51:08.007Z,962.58
2019-03-24T04:52:07.996Z,962.54
2019-03-24T04:53:07.979Z,962.63
2019-03-24T04:54:07.966Z,962.59
2019-03-24T04:55:07.954Z,962.58
2019-03-24T04:56:07.937Z,962.59
2019-03-24T04:57:07.924Z,962.6
2019-03-24T04:58:07.910Z,962.56
2019-03-24T04:59:07.896Z,962.56
2019-03-24T05:00:07.882Z,962.57
2019-03-24T05:01:07.870Z,962.56
2019-03-24T05:02:07.857Z,962.55
2019-03-24T05:03:07.841Z,962.54
2019-03-24T05:04:07.828Z,962.54
2019-03-24T05:05:07.815Z,962.57
2019-03-24T05:06:07.800Z,962.53
2019-03-24T05:07:07.787Z,962.54
2019-03-24T05:08:07.773Z,962.53
2019-03-24T05:09:07.760Z,962.5
2019-03-24T05:10:07.745Z,962.51
2019-03-24T05:11:07.732Z,962.5
2019-03-24T05:12:07.718Z,962.49
2019-03-24T05:13:07.704Z,962.5
2019-03-24T05:14:07.690Z,962.49
2019-03-24T05:15:07.677Z,962.52
2019-03-24T05:16:07.665Z,962.53
2019-03-24T05:17:07.655Z,962.57
2019-03-24T05:18:07.637Z,962.54
2019-03-24T05:19:07.623Z,962.56
2019-03-24T05:20:07.609Z,962.54
2019-03-24T05:21:07.595Z,962.53
2019-03-24T05:22:07.583Z,962.56
2019-03-24T05:23:07.569Z,962.53
2019-03-24T05:24:07.556Z,962.53
2019-03-24T05:25:07.543Z,962.52
2019-03-24T05:26:07.528Z,962.51
2019-03-24T05:27:07.514Z,962.53
2019-03-24T05:28:07.500Z,962.5
2019-03-24T05:29:07.487Z,962.49
2019-03-24T05:30:07.474Z,962.46
2019-03-24T05:31:07.459Z,962.5
2019-03-24T05:32:07.445Z,962.47
2019-03-24T05:33:07.432Z,962.51
2019-03-24T05:34:07.419Z,962.55
2019-03-24T05:35:07.407Z,962.46
2019-03-24T05:36:07.395Z,962.54
2019-03-24T05:37:07.380Z,962.51
2019-03-24T05:38:07.367Z,962.53
2019-03-24T05:39:07.351Z,962.52
2019-03-24T05:40:07.339Z,962.52
2019-03-24T05:41:07.326Z,962.52
2019-03-24T05:42:07.311Z,962.48
2019-03-24T05:43:07.297Z,962.42
2019-03-24T05:44:07.285Z,962.47
2019-03-24T05:45:07.271Z,962.41
2019-03-24T05:46:07.258Z,962.42
2019-03-24T05:47:07.244Z,962.39
2019-03-24T05:48:07.232Z,962.4
2019-03-24T05:49:07.218Z,962.39
2019-03-24T05:50:07.204Z,962.36
2019-03-24T05:51:07.193Z,962.41
2019-03-24T05:52:07.179Z,962.4
2019-03-24T05:53:07.164Z,962.35
2019-03-24T05:54:07.152Z,962.32
2019-03-24T05:55:07.153Z,962.31
2019-03-24T05:56:07.125Z,962.28
2019-03-24T05:57:07.112Z,962.28
2019-03-24T05:58:07.098Z,962.31
2019-03-24T05:59:07.083Z,962.32
2019-03-24T06:00:07.071Z,962.32
2019-03-24T06:01:07.056Z,962.33
2019-03-24T06:02:07.043Z,962.35
2019-03-24T06:03:07.030Z,962.35
2019-03-24T06:04:07.018Z,962.33
2019-03-24T06:05:07.005Z,962.28
2019-03-24T06:06:06.991Z,962.3
2019-03-24T06:07:06.978Z,962.27
2019-03-24T06:08:06.963Z,962.25
2019-03-24T06:09:06.951Z,962.27
2019-03-24T06:10:06.939Z,962.24
2019-03-24T06:11:06.924Z,962.22
2019-03-24T06:12:06.910Z,962.26
2019-03-24T06:13:06.898Z,962.26
2019-03-24T06:14:06.884Z,962.26
2019-03-24T06:15:06.872Z,962.24
2019-03-24T06:16:06.856Z,962.25
2019-03-24T06:17:06.843Z,962.25
2019-03-24T06:18:06.829Z,962.21
2019-03-24T06:19:06.816Z,962.22
2019-03-24T06:20:06.804Z,962.22
2019-03-24T06:21:06.791Z,962.2
2019-03-24T06:22:06.776Z,962.25
2019-03-24T06:23:06.764Z,962.24
2019-03-24T06:24:06.752Z,962.24
2019-03-24T06:25:06.738Z,962.27
2019-03-24T06:26:06.729Z,962.23
2019-03-24T06:27:06.709Z,962.17
2019-03-24T06:28:06.712Z,962.19
2019-03-24T06:29:06.689Z,962.15
2019-03-24T06:30:06.670Z,962.14
2019-03-24T06:31:06.657Z,962.15
2019-03-24T06:32:06.664Z,962.14
2019-03-24T06:33:06.631Z,962.12
2019-03-24T06:34:06.618Z,962.13
2019-03-24T06:35:06.605Z,962.15
2019-03-24T06:36:06.590Z,962.15
2019-03-24T06:37:06.578Z,962.1
2019-03-24T06:38:06.565Z,962.12
2019-03-24T06:39:06.552Z,962.11
2019-03-24T06:40:06.541Z,962.08
2019-03-24T06:41:06.524Z,962.09
2019-03-24T06:42:06.512Z,962.11
2019-03-24T06:43:06.500Z,962.1
2019-03-24T06:44:06.488Z,962.14
2019-03-24T06:45:06.473Z,962.12
2019-03-24T06:46:06.459Z,962.05
2019-03-24T06:47:06.447Z,962.13
2019-03-24T06:48:06.433Z,962.1
2019-03-24T06:49:06.419Z,962.09
2019-03-24T06:50:06.408Z,962.13
2019-03-24T06:51:06.394Z,962.13
2019-03-24T06:52:06.380Z,962.08
2019-03-24T06:53:06.366Z,962.11
2019-03-24T06:54:06.353Z,962.11
2019-03-24T06:55:06.343Z,962.11
2019-03-24T06:56:06.327Z,962.1
2019-03-24T06:57:06.316Z,962.11
2019-03-24T06:58:06.301Z,962.1
2019-03-24T06:59:06.290Z,962.06
2019-03-24T07:00:06.277Z,962.06
2019-03-24T07:01:06.264Z,962.08
2019-03-24T07:02:06.250Z,962.13
2019-03-24T07:03:06.238Z,962.1
2019-03-24T07:04:06.225Z,962.1
2019-03-24T07:05:06.211Z,962.09
2019-03-24T07:06:06.199Z,962.08
2019-03-24T07:07:06.185Z,962.09
2019-03-24T07:08:06.173Z,962.12
2019-03-24T07:09:06.161Z,962.09
2019-03-24T07:10:06.147Z,962.11
2019-03-24T07:11:11.479Z,962.12
2019-03-24T07:12:06.122Z,962.08
2019-03-24T07:13:06.109Z,962.1
2019-03-24T07:14:06.095Z,962.11
2019-03-24T07:15:06.082Z,962.08
2019-03-24T07:16:06.070Z,962.11
2019-03-24T07:17:06.057Z,962.08
2019-03-24T07:18:08.513Z,962.1
2019-03-24T07:19:06.031Z,962.09
2019-03-24T07:20:06.018Z,962.09
2019-03-24T07:21:06.006Z,962.09
2019-03-24T07:22:07.304Z,962.14
2019-03-24T07:23:05.981Z,962.17
2019-03-24T07:24:05.968Z,962.17
2019-03-24T07:25:05.955Z,962.16
2019-03-24T07:26:05.942Z,962.14
2019-03-24T07:27:05.930Z,962.16
2019-03-24T07:28:05.918Z,962.18
2019-03-24T07:29:05.904Z,962.16
2019-03-24T07:30:05.893Z,962.17
2019-03-24T07:31:05.882Z,962.16
2019-03-24T07:32:05.870Z,962.15
2019-03-24T07:33:05.853Z,962.16
2019-03-24T07:34:05.843Z,962.17
2019-03-24T07:35:05.829Z,962.14
2019-03-24T07:36:05.816Z,962.13
2019-03-24T07:37:05.804Z,962.17
2019-03-24T07:38:05.791Z,962.14
2019-03-24T07:39:05.782Z,962.16
2019-03-24T07:40:05.765Z,962.13
2019-03-24T07:41:05.752Z,962.13
2019-03-24T07:42:05.740Z,962.14
2019-03-24T07:43:05.727Z,962.14
2019-03-24T07:44:05.715Z,962.12
2019-03-24T07:45:05.703Z,962.06
2019-03-24T07:46:05.690Z,962.03
2019-03-24T07:47:05.678Z,962.08
2019-03-24T07:48:05.664Z,962.04
2019-03-24T07:49:05.654Z,962.07
2019-03-24T07:50:05.641Z,962.04
2019-03-24T07:51:05.627Z,962.03
2019-03-24T07:52:05.617Z,962
2019-03-24T07:53:05.602Z,961.98
2019-03-24T07:54:05.589Z,962.02
2019-03-24T07:55:05.578Z,962.02
2019-03-24T07:56:05.564Z,962.06
2019-03-24T07:57:05.554Z,962
2019-03-24T07:58:05.539Z,962.02
2019-03-24T07:59:05.528Z,962
2019-03-24T08:00:05.515Z,961.96
2019-03-24T08:01:05.504Z,961.99
2019-03-24T08:02:05.494Z,961.95
2019-03-24T08:03:05.479Z,961.97
2019-03-24T08:04:06.044Z,962.02
2019-03-24T08:05:05.452Z,961.99
2019-03-24T08:06:05.440Z,961.98
2019-03-24T08:07:05.428Z,961.96
2019-03-24T08:08:05.417Z,961.97
2019-03-24T08:09:05.403Z,961.96
2019-03-24T08:10:05.392Z,961.97
2019-03-24T08:11:05.380Z,961.9
2019-03-24T08:12:05.367Z,961.9
2019-03-24T08:13:05.354Z,961.89
2019-03-24T08:14:05.345Z,961.86
2019-03-24T08:15:05.331Z,961.91
2019-03-24T08:16:05.318Z,961.93
2019-03-24T08:17:05.305Z,961.94
2019-03-24T08:18:05.295Z,961.91
2019-03-24T08:19:05.282Z,961.91
2019-03-24T08:20:05.271Z,961.91
2019-03-24T08:21:05.256Z,961.93
2019-03-24T08:22:05.255Z,961.92
2019-03-24T08:23:05.233Z,961.9
2019-03-24T08:24:05.219Z,961.93
2019-03-24T08:25:05.213Z,961.91
2019-03-24T08:26:05.197Z,961.89
2019-03-24T08:27:05.190Z,961.88
2019-03-24T08:28:05.174Z,961.88
2019-03-24T08:29:05.160Z,961.88
2019-03-24T08:30:05.148Z,961.84
2019-03-24T08:31:05.134Z,961.81
2019-03-24T08:32:05.122Z,961.85
2019-03-24T08:33:05.137Z,961.84
2019-03-24T08:34:05.100Z,961.84
2019-03-24T08:35:05.086Z,961.79
2019-03-24T08:36:05.080Z,961.8
2019-03-24T08:37:05.064Z,961.77
2019-03-24T08:38:05.051Z,961.78
2019-03-24T08:39:05.039Z,961.73
2019-03-24T08:40:05.028Z,961.73
2019-03-24T08:41:05.021Z,961.7
2019-03-24T08:42:05.006Z,961.68
2019-03-24T08:43:04.991Z,961.69
2019-03-24T08:44:04.980Z,961.69
2019-03-24T08:45:04.971Z,961.68
2019-03-24T08:46:04.955Z,961.67
2019-03-24T08:47:04.942Z,961.66
2019-03-24T08:48:04.931Z,961.62
2019-03-24T08:49:04.919Z,961.58
2019-03-24T08:50:04.914Z,961.6
2019-03-24T08:51:04.898Z,961.58
2019-03-24T08:52:04.883Z,961.59
2019-03-24T08:53:04.877Z,961.56
2019-03-24T08:54:04.861Z,961.53
2019-03-24T08:55:04.849Z,961.54
2019-03-24T08:56:04.849Z,961.54
2019-03-24T08:57:04.831Z,961.51
2019-03-24T08:58:04.819Z,961.5
2019-03-24T08:59:04.801Z,961.45
2019-03-24T09:00:04.792Z,961.41
2019-03-24T09:01:04.777Z,961.42
2019-03-24T09:02:04.769Z,961.4
2019-03-24T09:03:04.753Z,961.34
2019-03-24T09:04:04.743Z,961.38
2019-03-24T09:05:04.728Z,961.36
2019-03-24T09:06:04.720Z,961.34
2019-03-24T09:07:04.708Z,961.3
2019-03-24T09:08:04.695Z,961.32
2019-03-24T09:09:04.684Z,961.36
2019-03-24T09:10:04.670Z,961.3
2019-03-24T09:11:04.658Z,961.31
2019-03-24T09:12:04.649Z,961.34
2019-03-24T09:13:04.634Z,961.31
2019-03-24T09:14:04.625Z,961.29
2019-03-24T09:15:04.610Z,961.23
2019-03-24T09:16:04.648Z,961.27
2019-03-24T09:17:04.587Z,961.24
2019-03-24T09:18:04.575Z,961.26
2019-03-24T09:19:04.565Z,961.25
2019-03-24T09:20:04.551Z,961.28
2019-03-24T09:21:04.542Z,961.27
2019-03-24T09:22:04.527Z,961.26
2019-03-24T09:23:04.517Z,961.28
2019-03-24T09:24:04.504Z,961.25
2019-03-24T09:25:04.499Z,961.21
2019-03-24T09:26:04.482Z,961.2
2019-03-24T09:27:04.468Z,961.2
2019-03-24T09:28:04.457Z,961.19
2019-03-24T09:29:04.446Z,961.18
2019-03-24T09:30:04.441Z,961.16
2019-03-24T09:31:04.478Z,961.2
2019-03-24T09:32:04.411Z,961.2
2019-03-24T09:33:04.397Z,961.15
2019-03-24T09:34:04.385Z,961.17
2019-03-24T09:35:04.374Z,961.16
2019-03-24T09:36:04.363Z,961.14
2019-03-24T09:37:04.352Z,961.08
2019-03-24T09:38:04.338Z,961.05
2019-03-24T09:39:04.328Z,961.01
2019-03-24T09:40:04.314Z,961.06
2019-03-24T09:41:04.302Z,961.03
2019-03-24T09:42:04.294Z,960.99
2019-03-24T09:43:04.281Z,961.03
2019-03-24T09:44:04.270Z,961
2019-03-24T09:45:04.254Z,961.02
2019-03-24T09:46:04.244Z,961.08
2019-03-24T09:47:04.232Z,961.05
2019-03-24T09:48:04.221Z,961.06
2019-03-24T09:49:04.207Z,961.04
2019-03-24T09:50:04.196Z,961.06
2019-03-24T09:51:04.184Z,961.05
2019-03-24T09:52:04.171Z,961.01
2019-03-24T09:53:04.160Z,961.03
2019-03-24T09:54:04.150Z,960.97
2019-03-24T09:55:04.138Z,960.96
2019-03-24T09:56:04.123Z,960.97
2019-03-24T09:57:04.115Z,960.97
2019-03-24T09:58:04.101Z,961
2019-03-24T09:59:04.090Z,960.96
2019-03-24T10:00:04.076Z,961.01
2019-03-24T10:01:04.067Z,960.97
2019-03-24T10:02:04.053Z,961
2019-03-24T10:03:04.057Z,960.99
2019-03-24T10:04:04.028Z,961.01
2019-03-24T10:05:04.018Z,961.01
2019-03-24T10:06:04.004Z,961.02
2019-03-24T10:07:03.992Z,961.02
2019-03-24T10:08:03.982Z,961.04
2019-03-24T10:09:03.970Z,961.06
2019-03-24T10:10:03.957Z,961.01
2019-03-24T10:11:03.945Z,961.02
2019-03-24T10:12:03.934Z,961.01
2019-03-24T10:13:03.926Z,961
2019-03-24T10:14:03.909Z,960.95
2019-03-24T10:15:03.897Z,960.95
2019-03-24T10:16:03.887Z,960.94
2019-03-24T10:17:03.874Z,960.97
2019-03-24T10:18:03.865Z,960.95
2019-03-24T10:19:13.457Z,960.96
2019-03-24T10:20:03.843Z,960.98
2019-03-24T10:21:03.825Z,960.92
2019-03-24T10:22:03.813Z,960.9
2019-03-24T10:23:03.803Z,960.9
2019-03-24T10:24:03.789Z,960.9
2019-03-24T10:25:03.776Z,960.89
2019-03-24T10:26:03.765Z,960.92
2019-03-24T10:27:03.752Z,960.93
2019-03-24T10:28:03.742Z,960.9
2019-03-24T10:29:03.729Z,960.92
2019-03-24T10:30:03.718Z,960.92
2019-03-24T10:31:03.707Z,960.88
2019-03-24T10:32:03.692Z,960.89
2019-03-24T10:33:03.681Z,960.87
2019-03-24T10:34:03.668Z,960.87
2019-03-24T10:35:03.655Z,960.87
2019-03-24T10:36:03.643Z,960.82
2019-03-24T10:37:03.654Z,960.86
2019-03-24T10:38:03.623Z,960.83
2019-03-24T10:39:03.606Z,960.77
2019-03-24T10:40:03.595Z,960.79
2019-03-24T10:41:03.590Z,960.82
2019-03-24T10:42:03.570Z,960.79
2019-03-24T10:43:03.558Z,960.77
2019-03-24T10:44:03.548Z,960.82
2019-03-24T10:45:03.541Z,960.81
2019-03-24T10:46:03.521Z,960.84
2019-03-24T10:47:03.508Z,960.84
2019-03-24T10:48:03.496Z,960.8
2019-03-24T10:49:03.484Z,960.79
2019-03-24T10:50:03.481Z,960.76
2019-03-24T10:51:03.461Z,960.73
2019-03-24T10:52:03.447Z,960.75
2019-03-24T10:53:03.435Z,960.79
2019-03-24T10:54:03.423Z,960.71
2019-03-24T10:55:03.410Z,960.68
2019-03-24T10:56:03.398Z,960.68
2019-03-24T10:57:05.332Z,960.69
2019-03-24T10:58:03.374Z,960.67
2019-03-24T10:59:03.361Z,960.67
2019-03-24T11:00:03.351Z,960.67
2019-03-24T11:01:03.336Z,960.65
2019-03-24T11:02:03.325Z,960.68
2019-03-24T11:03:03.313Z,960.66
2019-03-24T11:04:03.299Z,960.62
2019-03-24T11:05:03.288Z,960.62
2019-03-24T11:06:03.278Z,960.6
2019-03-24T11:07:03.262Z,960.61
2019-03-24T11:08:03.294Z,960.58
2019-03-24T11:09:03.238Z,960.59
2019-03-24T11:10:03.226Z,960.58
2019-03-24T11:11:03.213Z,960.6
2019-03-24T11:12:03.203Z,960.58
2019-03-24T11:13:03.189Z,960.56
2019-03-24T11:14:03.178Z,960.57
2019-03-24T11:15:03.165Z,960.52
2019-03-24T11:16:03.152Z,960.55
2019-03-24T11:17:03.139Z,960.54
2019-03-24T11:18:03.127Z,960.54
2019-03-24T11:19:03.115Z,960.51
2019-03-24T11:20:03.101Z,960.5
2019-03-24T11:21:03.090Z,960.48
2019-03-24T11:22:03.077Z,960.5
2019-03-24T11:23:03.064Z,960.49
2019-03-24T11:24:03.052Z,960.47
2019-03-24T11:25:03.041Z,960.46
2019-03-24T11:26:03.027Z,960.46
2019-03-24T11:27:03.015Z,960.47
2019-03-24T11:28:03.002Z,960.47
2019-03-24T11:29:02.993Z,960.43
2019-03-24T11:30:02.976Z,960.43
2019-03-24T11:31:02.965Z,960.44
2019-03-24T11:32:02.953Z,960.39
2019-03-24T11:33:02.979Z,960.35
2019-03-24T11:34:02.927Z,960.31
2019-03-24T11:35:02.914Z,960.32
2019-03-24T11:36:02.901Z,960.29
2019-03-24T11:37:02.890Z,960.29
2019-03-24T11:38:02.876Z,960.33
2019-03-24T11:39:02.864Z,960.28
2019-03-24T11:40:02.855Z,960.28
2019-03-24T11:41:02.838Z,960.22
2019-03-24T11:42:02.830Z,960.22
2019-03-24T11:43:02.814Z,960.23
2019-03-24T11:44:02.805Z,960.2
2019-03-24T11:45:02.788Z,960.17
2019-03-24T11:46:02.777Z,960.17
2019-03-24T11:47:02.763Z,960.15
2019-03-24T11:48:02.750Z,960.1
2019-03-24T11:49:02.738Z,960.14
2019-03-24T11:50:02.725Z,960.09
2019-03-24T11:51:02.714Z,960.09
2019-03-24T11:52:02.701Z,960.04
2019-03-24T11:53:02.690Z,960.02
2019-03-24T11:54:02.678Z,959.98
2019-03-24T11:55:02.664Z,959.97
2019-03-24T11:56:02.651Z,959.97
2019-03-24T11:57:02.637Z,959.94
2019-03-24T11:58:05.877Z,959.93
2019-03-24T11:59:02.613Z,959.88
2019-03-24T12:00:02.600Z,959.88
2019-03-24T12:01:02.589Z,959.89
2019-03-24T12:02:02.575Z,959.84
2019-03-24T12:03:02.562Z,959.78
2019-03-24T12:04:02.550Z,959.83
2019-03-24T12:05:02.548Z,959.81
2019-03-24T12:06:13.561Z,959.8
2019-03-24T12:07:02.524Z,959.73
2019-03-24T12:08:02.501Z,959.73
2019-03-24T12:09:02.492Z,959.76
2019-03-24T12:10:02.475Z,959.74
2019-03-24T12:11:02.467Z,959.75
2019-03-24T12:12:02.451Z,959.71
2019-03-24T12:13:02.439Z,959.73
2019-03-24T12:14:02.429Z,959.76
2019-03-24T12:15:02.413Z,959.75
2019-03-24T12:16:02.400Z,959.78
2019-03-24T12:17:02.389Z,959.78
2019-03-24T12:18:02.377Z,959.75
2019-03-24T12:19:02.365Z,959.78
2019-03-24T12:20:02.353Z,959.76
2019-03-24T12:21:02.338Z,959.74
2019-03-24T12:22:02.327Z,959.67
2019-03-24T12:23:02.316Z,959.68
2019-03-24T12:24:02.303Z,959.71
2019-03-24T12:25:02.290Z,959.65
2019-03-24T12:26:02.278Z,959.65
2019-03-24T12:27:02.266Z,959.61
2019-03-24T12:28:02.257Z,959.59
2019-03-24T12:29:02.239Z,959.63
2019-03-24T12:30:02.233Z,959.6
2019-03-24T12:31:02.216Z,959.57